Time;durP1;ratioP1;P1;durP2;ratioP2;P2;SDS_P1;SDS_P2;PMS_P1;PMS_P2;Temp;Humidity;BMP_temperature;BMP_pressure;BME280_temperature;BME280_humidity;BME280_pressure;Samples;Min_cycle;Max_cycle;Signal;HPM_P1;HPM_P2
2023/05/31 00:01:12;;;;;;;;;;;20.90;43.60;;;;;;5055530;28;19928;-75
2023/05/31 00:03:40;;;;;;;;;;;20.80;43.60;;;;;;5052350;28;19932;-76
2023/05/31 00:06:07;;;;;;;;;;;20.80;43.90;;;;;;5052718;28;19925;-75
2023/05/31 00:08:35;;;;;;;;;;;20.70;44.00;;;;;;5045502;28;20010;-76
2023/05/31 00:11:02;;;;;;;;;;;20.70;44.10;;;;;;5050673;28;19925;-75
2023/05/31 00:13:28;;;;;;;;;;;20.60;44.10;;;;;;5051890;28;19924;-75
2023/05/31 00:15:55;;;;;;;;;;;20.60;44.30;;;;;;5051223;28;19975;-76
2023/05/31 00:18:21;;;;;;;;;;;20.60;44.30;;;;;;5052041;28;19928;-76
2023/05/31 00:20:48;;;;;;;;;;;20.60;44.40;;;;;;5058204;28;19969;-76
2023/05/31 00:23:14;;;;;;;;;;;20.50;44.50;;;;;;5050286;28;19925;-75
2023/05/31 00:25:42;;;;;;;;;;;20.40;44.60;;;;;;5049826;28;20398;-76
2023/05/31 00:28:09;;;;;;;;;;;20.50;44.80;;;;;;5051386;28;19925;-76
2023/05/31 00:30:36;;;;;;;;;;;20.40;44.90;;;;;;5055255;28;20013;-76
2023/05/31 00:33:02;;;;;;;;;;;20.40;45.00;;;;;;5052392;28;19928;-76
2023/05/31 00:35:29;;;;;;;;;;;20.30;45.00;;;;;;5051867;28;20047;-76
2023/05/31 00:37:55;;;;;;;;;;;20.30;45.10;;;;;;5054877;28;20043;-75
2023/05/31 00:40:22;;;;;;;;;;;20.30;45.30;;;;;;5060083;28;19928;-76
2023/05/31 00:42:50;;;;;;;;;;;20.20;45.30;;;;;;5057782;28;19928;-76
2023/05/31 00:45:16;;;;;;;;;;;20.20;45.30;;;;;;5056021;28;19955;-75
2023/05/31 00:47:43;;;;;;;;;;;20.20;45.40;;;;;;5055672;28;19932;-75
2023/05/31 00:50:10;;;;;;;;;;;20.10;45.50;;;;;;5052973;28;20520;-76
2023/05/31 00:52:37;;;;;;;;;;;20.10;45.50;;;;;;5057667;28;20372;-75
2023/05/31 00:55:03;;;;;;;;;;;20.10;45.60;;;;;;5053695;28;19936;-76
2023/05/31 00:57:30;;;;;;;;;;;20.00;45.50;;;;;;5056526;28;20709;-76
2023/05/31 00:59:59;;;;;;;;;;;20.00;45.70;;;;;;5050246;28;19989;-75
2023/05/31 01:02:26;;;;;;;;;;;19.90;45.70;;;;;;5051942;28;19936;-76
2023/05/31 01:04:52;;;;;;;;;;;19.90;45.70;;;;;;5051073;28;20039;-75
2023/05/31 01:07:19;;;;;;;;;;;19.90;45.90;;;;;;5061388;28;19982;-75
2023/05/31 01:09:45;;;;;;;;;;;19.80;45.90;;;;;;5054963;28;19933;-76
2023/05/31 01:12:15;;;;;;;;;;;19.80;46.10;;;;;;5057961;28;19928;-76
2023/05/31 01:14:46;;;;;;;;;;;19.80;46.20;;;;;;5054732;28;19939;-76
2023/05/31 01:17:22;;;;;;;;;;;19.70;46.20;;;;;;5058252;28;20690;-75
2023/05/31 01:19:52;;;;;;;;;;;19.70;46.20;;;;;;5052869;28;20085;-75
2023/05/31 01:22:29;;;;;;;;;;;19.70;46.30;;;;;;5052217;28;19936;-76
2023/05/31 01:25:03;;;;;;;;;;;19.60;46.30;;;;;;5055705;28;19940;-76
2023/05/31 01:27:32;;;;;;;;;;;19.60;46.40;;;;;;5057061;28;19932;-75
2023/05/31 01:29:59;;;;;;;;;;;19.60;46.50;;;;;;5057662;28;19989;-75
2023/05/31 01:32:27;;;;;;;;;;;19.50;46.50;;;;;;5054791;28;19996;-76
2023/05/31 01:34:53;;;;;;;;;;;19.50;46.70;;;;;;5058181;28;19928;-76
2023/05/31 01:37:20;;;;;;;;;;;19.50;46.80;;;;;;5054499;28;19974;-76
2023/05/31 01:39:48;;;;;;;;;;;19.40;47.00;;;;;;5055316;28;20501;-75
2023/05/31 01:42:16;;;;;;;;;;;19.40;47.10;;;;;;5059125;28;19935;-75
2023/05/31 01:44:44;;;;;;;;;;;19.40;47.20;;;;;;5057855;28;19980;-75
2023/05/31 01:47:11;;;;;;;;;;;19.40;47.30;;;;;;5055837;28;20425;-75
2023/05/31 01:49:38;;;;;;;;;;;19.30;47.40;;;;;;5061462;28;19932;-75
2023/05/31 01:52:06;;;;;;;;;;;19.30;47.50;;;;;;5053612;28;19974;-75
2023/05/31 01:54:32;;;;;;;;;;;19.30;47.70;;;;;;5054078;28;20662;-76
2023/05/31 01:57:00;;;;;;;;;;;19.20;47.90;;;;;;5052621;28;19928;-75
2023/05/31 01:59:26;;;;;;;;;;;19.20;48.10;;;;;;5055813;28;19935;-75
2023/05/31 02:01:55;;;;;;;;;;;19.20;48.80;;;;;;5055127;28;19928;-75
2023/05/31 02:04:21;;;;;;;;;;;19.10;48.30;;;;;;5054550;28;20139;-75
2023/05/31 02:06:48;;;;;;;;;;;19.10;48.50;;;;;;5056196;28;19928;-76
2023/05/31 02:09:14;;;;;;;;;;;19.10;48.50;;;;;;5054204;28;19928;-75
2023/05/31 02:11:41;;;;;;;;;;;19.10;48.80;;;;;;5055447;28;19932;-74
2023/05/31 02:14:07;;;;;;;;;;;19.00;48.70;;;;;;5048718;28;19929;-75
2023/05/31 02:16:34;;;;;;;;;;;19.00;48.80;;;;;;5053018;28;20144;-75
2023/05/31 02:19:02;;;;;;;;;;;19.00;49.00;;;;;;5052945;28;19932;-75
2023/05/31 02:21:29;;;;;;;;;;;18.90;49.00;;;;;;5056880;28;19932;-75
2023/05/31 02:23:57;;;;;;;;;;;18.90;49.10;;;;;;5057970;28;20472;-76
2023/05/31 02:26:23;;;;;;;;;;;18.90;49.20;;;;;;5063659;28;19932;-75
2023/05/31 02:28:50;;;;;;;;;;;18.80;49.20;;;;;;5055045;28;19933;-75
2023/05/31 02:31:16;;;;;;;;;;;18.80;49.30;;;;;;5061204;28;19989;-76
2023/05/31 02:33:43;;;;;;;;;;;18.70;49.40;;;;;;5057534;28;20328;-75
2023/05/31 02:36:12;;;;;;;;;;;18.70;49.50;;;;;;5063857;28;19935;-76
2023/05/31 02:38:38;;;;;;;;;;;18.70;49.60;;;;;;5053613;28;19935;-76
2023/05/31 02:41:05;;;;;;;;;;;18.70;49.70;;;;;;5062940;28;19974;-75
2023/05/31 02:43:31;;;;;;;;;;;18.70;49.70;;;;;;5057785;28;20057;-75
2023/05/31 02:46:01;;;;;;;;;;;18.60;49.80;;;;;;5055804;28;20385;-75
2023/05/31 02:48:27;;;;;;;;;;;18.60;49.80;;;;;;5058848;28;19936;-76
2023/05/31 02:50:54;;;;;;;;;;;18.50;49.80;;;;;;5054583;28;19928;-76
2023/05/31 02:53:22;;;;;;;;;;;18.50;49.70;;;;;;5055479;28;20023;-75
2023/05/31 02:55:48;;;;;;;;;;;18.50;49.80;;;;;;5054087;28;19928;-76
2023/05/31 02:58:15;;;;;;;;;;;18.40;49.70;;;;;;5052211;28;19982;-75
2023/05/31 03:00:42;;;;;;;;;;;18.40;49.80;;;;;;5054492;28;19933;-75
2023/05/31 03:03:10;;;;;;;;;;;18.40;50.00;;;;;;5048588;28;19982;-76
2023/05/31 03:05:38;;;;;;;;;;;18.40;50.00;;;;;;5051674;28;20402;-74
2023/05/31 03:08:04;;;;;;;;;;;18.30;49.90;;;;;;5053784;28;20512;-75
2023/05/31 03:10:32;;;;;;;;;;;18.30;49.90;;;;;;5049008;28;19933;-75
2023/05/31 03:12:58;;;;;;;;;;;18.30;50.00;;;;;;5055506;28;20553;-76
2023/05/31 03:15:25;;;;;;;;;;;18.20;50.00;;;;;;5052354;28;19955;-76
2023/05/31 03:17:52;;;;;;;;;;;18.20;50.00;;;;;;5055081;28;19975;-75
2023/05/31 03:20:18;;;;;;;;;;;18.20;50.10;;;;;;5049646;28;19932;-76
2023/05/31 03:22:45;;;;;;;;;;;18.20;50.30;;;;;;5050871;28;21292;-76
2023/05/31 03:25:11;;;;;;;;;;;18.10;50.20;;;;;;5059029;28;20421;-76
2023/05/31 03:27:39;;;;;;;;;;;18.10;50.30;;;;;;5056950;28;19932;-75
2023/05/31 03:30:07;;;;;;;;;;;18.10;50.30;;;;;;5053101;28;19929;-75
2023/05/31 03:32:33;;;;;;;;;;;18.10;50.40;;;;;;5055390;28;20287;-75
2023/05/31 03:35:00;;;;;;;;;;;18.00;50.40;;;;;;5055754;28;19940;-75
2023/05/31 03:37:27;;;;;;;;;;;18.00;50.60;;;;;;5056966;28;19928;-75
2023/05/31 03:39:53;;;;;;;;;;;18.00;50.70;;;;;;5056565;28;19978;-75
2023/05/31 03:42:20;;;;;;;;;;;17.90;50.80;;;;;;5058785;28;19928;-76
2023/05/31 03:44:47;;;;;;;;;;;17.90;50.70;;;;;;5060983;28;19978;-75
2023/05/31 03:47:14;;;;;;;;;;;17.90;50.80;;;;;;5058151;28;20355;-75
2023/05/31 03:49:40;;;;;;;;;;;17.90;50.90;;;;;;5056251;28;19936;-75
2023/05/31 03:52:08;;;;;;;;;;;17.90;50.90;;;;;;5058943;28;19936;-75
2023/05/31 03:54:35;;;;;;;;;;;17.80;50.90;;;;;;5059957;28;19929;-75
2023/05/31 03:57:01;;;;;;;;;;;17.90;51.00;;;;;;5050281;28;19981;-75
2023/05/31 03:59:28;;;;;;;;;;;17.80;51.00;;;;;;5049517;28;19932;-76
2023/05/31 04:01:56;;;;;;;;;;;17.80;51.10;;;;;;5055918;28;20340;-76
2023/05/31 04:04:22;;;;;;;;;;;17.80;51.20;;;;;;5059913;28;19962;-75
2023/05/31 04:06:49;;;;;;;;;;;17.70;51.20;;;;;;5055188;28;20728;-76
2023/05/31 04:09:15;;;;;;;;;;;17.70;51.30;;;;;;5053240;28;19928;-76
2023/05/31 04:11:42;;;;;;;;;;;17.70;51.50;;;;;;5061946;28;19998;-74
2023/05/31 04:14:08;;;;;;;;;;;17.70;51.60;;;;;;5057251;28;19936;-75
2023/05/31 04:16:35;;;;;;;;;;;17.70;51.70;;;;;;5058978;28;19929;-75
2023/05/31 04:19:03;;;;;;;;;;;17.60;51.80;;;;;;5059792;28;19929;-76
2023/05/31 04:21:31;;;;;;;;;;;17.60;51.80;;;;;;5056511;28;20309;-75
2023/05/31 04:23:58;;;;;;;;;;;17.60;51.90;;;;;;5051836;28;19928;-75
2023/05/31 04:26:25;;;;;;;;;;;17.60;52.00;;;;;;5052793;28;19928;-75
2023/05/31 04:28:53;;;;;;;;;;;17.50;52.00;;;;;;5051861;28;19932;-76
2023/05/31 04:31:20;;;;;;;;;;;17.50;52.10;;;;;;5050876;28;20041;-75
2023/05/31 04:33:46;;;;;;;;;;;17.50;52.80;;;;;;5056021;28;19985;-75
2023/05/31 04:36:14;;;;;;;;;;;17.50;52.20;;;;;;5060603;28;19928;-75
2023/05/31 04:38:41;;;;;;;;;;;17.50;52.30;;;;;;5054483;28;19925;-76
2023/05/31 04:41:08;;;;;;;;;;;17.50;52.40;;;;;;5057578;28;19929;-75
2023/05/31 04:43:34;;;;;;;;;;;17.40;52.50;;;;;;5061164;28;19929;-76
2023/05/31 04:46:01;;;;;;;;;;;17.40;52.60;;;;;;5062110;28;19933;-75
2023/05/31 04:48:28;;;;;;;;;;;17.40;52.70;;;;;;5057807;28;19935;-75
2023/05/31 04:50:55;;;;;;;;;;;17.40;52.80;;;;;;5056234;28;19936;-75
2023/05/31 04:53:24;;;;;;;;;;;17.40;52.90;;;;;;5055164;28;19935;-76
2023/05/31 04:55:51;;;;;;;;;;;17.40;53.10;;;;;;5062875;28;20744;-75
2023/05/31 04:58:19;;;;;;;;;;;17.30;53.10;;;;;;5068137;28;19932;-75
2023/05/31 05:00:45;;;;;;;;;;;17.30;53.30;;;;;;5052730;28;20002;-76
2023/05/31 05:03:12;;;;;;;;;;;17.30;53.40;;;;;;5044625;28;19927;-75
2023/05/31 05:05:38;;;;;;;;;;;17.30;53.40;;;;;;5056751;28;19928;-75
2023/05/31 05:08:05;;;;;;;;;;;17.30;53.50;;;;;;5051469;28;19932;-75
2023/05/31 05:10:33;;;;;;;;;;;17.20;53.50;;;;;;5051872;28;19971;-75
2023/05/31 05:12:59;;;;;;;;;;;17.30;53.60;;;;;;5055888;28;20314;-75
2023/05/31 05:15:26;;;;;;;;;;;17.30;53.70;;;;;;5051838;28;19986;-76
2023/05/31 05:17:52;;;;;;;;;;;17.30;53.80;;;;;;5044473;28;19929;-76
2023/05/31 05:20:20;;;;;;;;;;;17.30;53.90;;;;;;5048102;28;19975;-75
2023/05/31 05:22:51;;;;;;;;;;;17.30;54.00;;;;;;5047274;28;20337;-76
2023/05/31 05:25:17;;;;;;;;;;;17.20;54.10;;;;;;5050413;28;19928;-76
2023/05/31 05:27:45;;;;;;;;;;;17.20;54.10;;;;;;5050794;28;19937;-76
2023/05/31 05:30:12;;;;;;;;;;;17.30;54.30;;;;;;5051879;28;19939;-76
2023/05/31 05:32:39;;;;;;;;;;;17.20;54.40;;;;;;5054501;28;19929;-76
2023/05/31 05:35:06;;;;;;;;;;;17.20;54.50;;;;;;5053728;28;20019;-76
2023/05/31 05:37:32;;;;;;;;;;;17.20;54.50;;;;;;5057384;28;20278;-75
2023/05/31 05:40:00;;;;;;;;;;;17.20;54.60;;;;;;5061090;28;19929;-76
2023/05/31 05:42:27;;;;;;;;;;;17.00;54.90;;;;;;5059363;28;19928;-76
2023/05/31 05:44:57;;;;;;;;;;;17.00;55.00;;;;;;5064378;28;21479;-76
2023/05/31 05:47:24;;;;;;;;;;;17.00;55.00;;;;;;5071350;28;19932;-76
2023/05/31 05:49:50;;;;;;;;;;;17.00;55.00;;;;;;5060783;28;19929;-76
2023/05/31 05:52:17;;;;;;;;;;;17.00;55.00;;;;;;5061095;28;19936;-76
2023/05/31 05:54:43;;;;;;;;;;;17.00;54.90;;;;;;5058641;28;20352;-76
2023/05/31 05:57:10;;;;;;;;;;;17.00;54.60;;;;;;5062333;28;19932;-76
2023/05/31 05:59:37;;;;;;;;;;;17.00;54.70;;;;;;5051487;28;19932;-76
2023/05/31 06:02:06;;;;;;;;;;;17.10;54.70;;;;;;5055248;28;19955;-76
2023/05/31 06:04:32;;;;;;;;;;;17.10;54.70;;;;;;5057133;28;20782;-76
2023/05/31 06:06:59;;;;;;;;;;;17.10;54.90;;;;;;5052916;28;19994;-75
2023/05/31 06:09:26;;;;;;;;;;;17.10;54.70;;;;;;5050977;28;19929;-74
2023/05/31 06:11:52;;;;;;;;;;;17.20;54.80;;;;;;5050323;28;19936;-75
2023/05/31 06:14:19;;;;;;;;;;;17.20;54.90;;;;;;5055742;28;19928;-75
2023/05/31 06:16:46;;;;;;;;;;;17.30;54.70;;;;;;5050699;28;20669;-74
2023/05/31 06:19:13;;;;;;;;;;;17.30;54.50;;;;;;5051661;28;19928;-74
2023/05/31 06:21:40;;;;;;;;;;;17.50;54.40;;;;;;5057303;28;19929;-75
2023/05/31 06:24:07;;;;;;;;;;;17.50;54.20;;;;;;5047851;28;19935;-74
2023/05/31 06:26:35;;;;;;;;;;;17.60;54.10;;;;;;5052358;28;20382;-75
2023/05/31 06:29:01;;;;;;;;;;;17.60;53.80;;;;;;5054165;28;19934;-75
2023/05/31 06:31:28;;;;;;;;;;;17.70;53.60;;;;;;5051806;28;20322;-75
2023/05/31 06:33:55;;;;;;;;;;;17.70;54.00;;;;;;5054284;28;19935;-75
2023/05/31 06:36:23;;;;;;;;;;;17.80;54.00;;;;;;5053888;28;20311;-75
2023/05/31 06:38:49;;;;;;;;;;;17.80;53.30;;;;;;5053420;28;19933;-75
2023/05/31 06:41:16;;;;;;;;;;;17.90;53.40;;;;;;5050905;28;19928;-74
2023/05/31 06:43:42;;;;;;;;;;;17.90;53.20;;;;;;5054183;28;19925;-74
2023/05/31 06:46:11;;;;;;;;;;;17.90;52.90;;;;;;5056922;28;19970;-75
2023/05/31 06:48:38;;;;;;;;;;;18.00;52.80;;;;;;5052108;28;19936;-75
2023/05/31 06:51:04;;;;;;;;;;;18.00;52.70;;;;;;5058895;28;19940;-74
2023/05/31 06:53:32;;;;;;;;;;;18.10;52.70;;;;;;5053777;28;19975;-74
2023/05/31 06:55:59;;;;;;;;;;;18.10;52.60;;;;;;5051780;28;19932;-74
2023/05/31 06:58:30;;;;;;;;;;;18.10;52.50;;;;;;5050787;28;19929;-75
2023/05/31 07:00:56;;;;;;;;;;;18.10;52.50;;;;;;5049752;28;19938;-74
2023/05/31 07:03:23;;;;;;;;;;;18.10;52.40;;;;;;5045015;28;20394;-75
2023/05/31 07:05:49;;;;;;;;;;;18.20;52.30;;;;;;5051847;28;19928;-75
2023/05/31 07:08:16;;;;;;;;;;;18.20;52.20;;;;;;5053190;28;19933;-75
2023/05/31 07:10:45;;;;;;;;;;;18.20;52.20;;;;;;5050557;28;19929;-74
2023/05/31 07:13:11;;;;;;;;;;;18.20;52.20;;;;;;5050083;28;19974;-75
2023/05/31 07:15:38;;;;;;;;;;;18.20;52.10;;;;;;5050746;28;19990;-73
2023/05/31 07:18:04;;;;;;;;;;;18.20;52.10;;;;;;5050557;28;19933;-75
2023/05/31 07:20:31;;;;;;;;;;;18.30;52.10;;;;;;5041015;28;20666;-74
2023/05/31 07:22:58;;;;;;;;;;;18.20;51.90;;;;;;5051971;28;19928;-73
2023/05/31 07:25:24;;;;;;;;;;;18.20;51.80;;;;;;5051846;28;19933;-75
2023/05/31 07:27:52;;;;;;;;;;;18.30;51.90;;;;;;5052010;28;19928;-74
2023/05/31 07:30:21;;;;;;;;;;;18.40;51.90;;;;;;5051274;28;19932;-75
2023/05/31 07:32:47;;;;;;;;;;;18.30;51.80;;;;;;5062112;28;20337;-76
2023/05/31 07:35:14;;;;;;;;;;;18.30;51.80;;;;;;5056491;28;19932;-72
2023/05/31 07:37:40;;;;;;;;;;;18.40;51.90;;;;;;5063171;28;19928;-71
2023/05/31 07:40:07;;;;;;;;;;;18.40;51.80;;;;;;5059674;28;19996;-72
2023/05/31 07:42:34;;;;;;;;;;;18.40;51.90;;;;;;5059250;28;20554;-71
2023/05/31 07:45:02;;;;;;;;;;;18.40;51.80;;;;;;5063184;28;19928;-71
2023/05/31 07:47:29;;;;;;;;;;;18.40;51.70;;;;;;5048584;28;19933;-71
2023/05/31 07:49:56;;;;;;;;;;;18.50;51.70;;;;;;5054925;28;19935;-71
2023/05/31 07:52:23;;;;;;;;;;;18.50;51.60;;;;;;5053845;28;19993;-72
2023/05/31 07:54:50;;;;;;;;;;;18.50;51.60;;;;;;5055716;28;19981;-71
2023/05/31 07:57:16;;;;;;;;;;;18.50;51.40;;;;;;5050451;28;20423;-71
2023/05/31 07:59:43;;;;;;;;;;;18.60;51.40;;;;;;5051458;28;20511;-72
2023/05/31 08:02:10;;;;;;;;;;;18.60;51.40;;;;;;5056112;28;19936;-70
2023/05/31 08:04:37;;;;;;;;;;;18.60;51.30;;;;;;5049429;28;20711;-71
2023/05/31 08:07:04;;;;;;;;;;;18.70;51.40;;;;;;5051976;28;19928;-71
2023/05/31 08:09:31;;;;;;;;;;;18.60;51.30;;;;;;5054717;28;19928;-71
2023/05/31 08:11:57;;;;;;;;;;;18.70;51.30;;;;;;5054372;28;20015;-71
2023/05/31 08:14:24;;;;;;;;;;;18.70;51.30;;;;;;5059046;28;19928;-71
2023/05/31 08:16:50;;;;;;;;;;;18.70;51.30;;;;;;5052672;28;19931;-73
2023/05/31 08:19:18;;;;;;;;;;;18.80;51.30;;;;;;5052094;28;19927;-71
2023/05/31 08:21:46;;;;;;;;;;;18.80;51.30;;;;;;5051855;28;20619;-72
2023/05/31 08:24:12;;;;;;;;;;;18.80;51.30;;;;;;5058991;28;20378;-72
2023/05/31 08:26:39;;;;;;;;;;;18.90;51.30;;;;;;5052365;28;19932;-71
2023/05/31 08:29:07;;;;;;;;;;;18.90;51.30;;;;;;5051526;28;20319;-71
2023/05/31 08:31:33;;;;;;;;;;;18.90;51.30;;;;;;5054197;28;19991;-71
2023/05/31 08:34:00;;;;;;;;;;;19.00;51.30;;;;;;5055627;28;20423;-71
2023/05/31 08:36:28;;;;;;;;;;;19.00;51.30;;;;;;5056269;28;19974;-70
2023/05/31 08:38:54;;;;;;;;;;;19.00;51.20;;;;;;5051475;28;19940;-71
2023/05/31 08:41:22;;;;;;;;;;;19.10;51.30;;;;;;5056868;28;19986;-73
2023/05/31 08:43:48;;;;;;;;;;;19.10;51.30;;;;;;5056190;28;20322;-71
2023/05/31 08:46:15;;;;;;;;;;;19.10;51.30;;;;;;5057981;28;20031;-72
2023/05/31 08:48:43;;;;;;;;;;;19.20;51.30;;;;;;5048180;28;20466;-71
2023/05/31 08:51:10;;;;;;;;;;;19.20;51.30;;;;;;5048702;28;20702;-71
2023/05/31 08:53:39;;;;;;;;;;;19.20;51.30;;;;;;5052425;28;19933;-71
2023/05/31 08:56:08;;;;;;;;;;;19.30;51.30;;;;;;5047739;28;20326;-72
2023/05/31 08:58:35;;;;;;;;;;;19.30;51.20;;;;;;5046091;28;19929;-71
2023/05/31 09:01:02;;;;;;;;;;;19.40;51.10;;;;;;5053504;28;19998;-72
2023/05/31 09:03:29;;;;;;;;;;;19.40;51.00;;;;;;5052634;28;19936;-72
2023/05/31 09:05:56;;;;;;;;;;;19.40;51.00;;;;;;5058680;28;19933;-72
2023/05/31 09:08:22;;;;;;;;;;;19.50;50.90;;;;;;5056863;28;20002;-72
2023/05/31 09:10:50;;;;;;;;;;;19.50;50.80;;;;;;5057826;28;19928;-71
2023/05/31 09:13:17;;;;;;;;;;;19.60;50.70;;;;;;5056917;28;19932;-71
2023/05/31 09:15:45;;;;;;;;;;;19.70;50.70;;;;;;5059086;28;19944;-71
2023/05/31 09:18:15;;;;;;;;;;;19.70;50.60;;;;;;5058152;28;19932;-71
2023/05/31 09:20:42;;;;;;;;;;;19.70;50.50;;;;;;5051769;28;20416;-71
2023/05/31 09:23:09;;;;;;;;;;;19.70;50.40;;;;;;5050994;28;20244;-72
2023/05/31 09:25:46;;;;;;;;;;;19.80;50.40;;;;;;5051312;28;20675;-71
2023/05/31 09:28:14;;;;;;;;;;;19.90;50.40;;;;;;5047920;28;19944;-72
2023/05/31 09:30:41;;;;;;;;;;;19.90;50.30;;;;;;5049765;28;19955;-72
2023/05/31 09:33:07;;;;;;;;;;;19.90;50.20;;;;;;5059045;28;19935;-72
2023/05/31 09:35:34;;;;;;;;;;;20.00;50.10;;;;;;5046712;28;19933;-71
2023/05/31 09:38:04;;;;;;;;;;;20.10;50.20;;;;;;5051364;28;19936;-71
2023/05/31 09:40:32;;;;;;;;;;;20.10;50.10;;;;;;5058002;28;20455;-71
2023/05/31 09:42:59;;;;;;;;;;;20.20;50.00;;;;;;5056472;28;20303;-71
2023/05/31 09:45:28;;;;;;;;;;;20.20;50.00;;;;;;5057671;28;20522;-71
2023/05/31 09:47:54;;;;;;;;;;;20.30;49.90;;;;;;5052668;28;19928;-72
2023/05/31 09:50:22;;;;;;;;;;;20.40;49.70;;;;;;5056512;28;19986;-71
2023/05/31 09:52:49;;;;;;;;;;;20.50;49.60;;;;;;5056028;28;19944;-71
2023/05/31 09:55:16;;;;;;;;;;;20.50;49.40;;;;;;5055713;28;20236;-72
2023/05/31 09:57:43;;;;;;;;;;;20.60;49.30;;;;;;5052108;28;20718;-71
2023/05/31 10:00:15;;;;;;;;;;;20.70;49.20;;;;;;5052733;28;19928;-71
2023/05/31 10:02:43;;;;;;;;;;;20.70;48.90;;;;;;5053130;28;19928;-71
2023/05/31 10:05:11;;;;;;;;;;;20.80;48.60;;;;;;5062455;28;19932;-71
2023/05/31 10:07:39;;;;;;;;;;;20.90;48.40;;;;;;5056921;28;19939;-72
2023/05/31 10:10:06;;;;;;;;;;;20.90;48.10;;;;;;5057213;28;19931;-72
2023/05/31 10:12:34;;;;;;;;;;;21.00;48.00;;;;;;5046961;28;19924;-72
2023/05/31 10:15:02;;;;;;;;;;;21.00;47.70;;;;;;5055849;28;19924;-71
2023/05/31 10:17:29;;;;;;;;;;;21.10;47.50;;;;;;5055623;28;19932;-73
2023/05/31 10:20:00;;;;;;;;;;;21.20;47.30;;;;;;5049691;28;20778;-72
2023/05/31 10:22:28;;;;;;;;;;;21.30;47.10;;;;;;5056699;28;20400;-73
2023/05/31 10:24:58;;;;;;;;;;;21.30;47.00;;;;;;5049193;28;20335;-73
2023/05/31 10:27:28;;;;;;;;;;;21.40;46.40;;;;;;5052978;28;19954;-73
2023/05/31 10:29:56;;;;;;;;;;;21.50;46.50;;;;;;5043763;28;19925;-73
2023/05/31 10:32:24;;;;;;;;;;;21.60;46.50;;;;;;5053469;28;19933;-72
2023/05/31 10:34:51;;;;;;;;;;;21.60;46.40;;;;;;5046851;28;19935;-73
2023/05/31 10:37:19;;;;;;;;;;;21.70;46.40;;;;;;5057399;28;20506;-72
2023/05/31 10:39:48;;;;;;;;;;;21.80;46.30;;;;;;5059682;28;20016;-72
2023/05/31 10:42:20;;;;;;;;;;;21.80;46.30;;;;;;5051384;28;20568;-72
2023/05/31 10:44:48;;;;;;;;;;;21.90;46.10;;;;;;5057211;28;20045;-72
2023/05/31 10:47:16;;;;;;;;;;;22.00;45.80;;;;;;5050543;28;19981;-72
2023/05/31 10:49:44;;;;;;;;;;;22.00;45.50;;;;;;5055561;28;19934;-72
2023/05/31 10:52:10;;;;;;;;;;;22.10;45.30;;;;;;5053767;28;19929;-72
2023/05/31 10:54:39;;;;;;;;;;;22.20;45.30;;;;;;5060072;28;19935;-73
2023/05/31 10:57:07;;;;;;;;;;;22.20;45.10;;;;;;5050525;28;20553;-72
2023/05/31 10:59:43;;;;;;;;;;;22.30;45.10;;;;;;5052543;28;19939;-72
2023/05/31 11:02:11;;;;;;;;;;;22.40;44.90;;;;;;5047599;28;19928;-72
2023/05/31 11:04:37;;;;;;;;;;;22.40;44.40;;;;;;5047636;28;19939;-73
2023/05/31 11:07:14;;;;;;;;;;;22.50;44.30;;;;;;5058785;28;19928;-72
2023/05/31 11:09:56;;;;;;;;;;;22.60;44.20;;;;;;5054203;28;19929;-72
2023/05/31 11:12:32;;;;;;;;;;;22.70;44.30;;;;;;5054277;28;20394;-72
2023/05/31 11:15:01;;;;;;;;;;;22.70;44.30;;;;;;5050129;28;19929;-73
2023/05/31 11:17:28;;;;;;;;;;;22.80;44.20;;;;;;5049242;28;19928;-73
2023/05/31 11:19:55;;;;;;;;;;;22.80;43.90;;;;;;5051208;28;19975;-72
2023/05/31 11:22:28;;;;;;;;;;;22.90;43.70;;;;;;5053543;28;19985;-72
2023/05/31 11:24:57;;;;;;;;;;;23.00;43.60;;;;;;5049775;28;19982;-71
2023/05/31 11:27:34;;;;;;;;;;;23.00;43.30;;;;;;5055960;28;20078;-72
2023/05/31 11:30:00;;;;;;;;;;;23.10;43.40;;;;;;5051502;28;19974;-71
2023/05/31 11:32:46;;;;;;;;;;;23.10;43.40;;;;;;5055090;28;19933;-72
2023/05/31 11:35:15;;;;;;;;;;;23.20;43.30;;;;;;5054034;28;19928;-73
2023/05/31 11:37:42;;;;;;;;;;;23.30;43.10;;;;;;5047698;28;19929;-72
2023/05/31 11:40:11;;;;;;;;;;;23.40;43.20;;;;;;5054709;28;19932;-72
2023/05/31 11:42:38;;;;;;;;;;;23.40;43.10;;;;;;5048438;28;19936;-72
2023/05/31 11:45:06;;;;;;;;;;;23.50;42.80;;;;;;5050805;28;19937;-72
2023/05/31 11:47:33;;;;;;;;;;;23.50;43.40;;;;;;5060469;28;19937;-73
2023/05/31 11:50:00;;;;;;;;;;;23.60;42.40;;;;;;5052944;28;19988;-72
2023/05/31 11:52:26;;;;;;;;;;;23.60;42.40;;;;;;5050743;28;19976;-73
2023/05/31 11:54:54;;;;;;;;;;;23.70;42.60;;;;;;5050354;28;20492;-71
2023/05/31 11:57:22;;;;;;;;;;;23.80;42.90;;;;;;5049456;28;20004;-73
2023/05/31 11:59:49;;;;;;;;;;;23.80;42.60;;;;;;5057235;28;19925;-72
2023/05/31 12:02:17;;;;;;;;;;;23.90;42.20;;;;;;5052050;28;20018;-72
2023/05/31 12:04:43;;;;;;;;;;;23.90;42.30;;;;;;5053622;28;19925;-72
2023/05/31 12:07:11;;;;;;;;;;;24.00;42.20;;;;;;5057602;28;20731;-72
2023/05/31 12:09:37;;;;;;;;;;;24.00;42.10;;;;;;5053571;28;19933;-72
2023/05/31 12:12:05;;;;;;;;;;;24.10;41.60;;;;;;5050454;28;20369;-72
2023/05/31 12:14:33;;;;;;;;;;;24.10;41.40;;;;;;5048323;28;20035;-72
2023/05/31 12:17:01;;;;;;;;;;;24.20;41.00;;;;;;5051126;28;19932;-74
2023/05/31 12:19:28;;;;;;;;;;;24.30;40.90;;;;;;5044393;28;19936;-73
2023/05/31 12:21:54;;;;;;;;;;;24.30;40.90;;;;;;5049542;28;20356;-72
2023/05/31 12:24:21;;;;;;;;;;;24.30;41.00;;;;;;5052885;28;20570;-72
2023/05/31 12:26:49;;;;;;;;;;;24.40;41.10;;;;;;5050880;28;19928;-71
2023/05/31 12:29:15;;;;;;;;;;;24.40;41.10;;;;;;5052391;28;19939;-72
2023/05/31 12:31:43;;;;;;;;;;;24.50;41.00;;;;;;5046043;28;19937;-71
2023/05/31 12:34:10;;;;;;;;;;;24.60;41.00;;;;;;5047701;28;19929;-72
2023/05/31 12:36:38;;;;;;;;;;;24.60;40.80;;;;;;5062455;28;19932;-73
2023/05/31 12:39:08;;;;;;;;;;;24.70;40.30;;;;;;5061675;28;19928;-72
2023/05/31 12:41:34;;;;;;;;;;;24.70;40.20;;;;;;5051560;28;19932;-73
2023/05/31 12:44:01;;;;;;;;;;;24.70;40.20;;;;;;5053422;28;20017;-71
2023/05/31 12:46:27;;;;;;;;;;;24.70;40.20;;;;;;5052746;28;19932;-72
2023/05/31 12:48:55;;;;;;;;;;;24.80;40.10;;;;;;5055952;28;19936;-73
2023/05/31 12:51:22;;;;;;;;;;;24.90;40.20;;;;;;5054675;28;19929;-73
2023/05/31 12:53:49;;;;;;;;;;;24.90;40.40;;;;;;5054588;28;19933;-72
2023/05/31 12:56:16;;;;;;;;;;;24.90;40.20;;;;;;5059929;28;19975;-72
2023/05/31 12:58:43;;;;;;;;;;;25.00;40.00;;;;;;5054057;28;19935;-74
2023/05/31 13:01:09;;;;;;;;;;;25.00;40.00;;;;;;5046977;28;19928;-73
2023/05/31 13:03:36;;;;;;;;;;;25.10;39.70;;;;;;5057074;28;19928;-73
2023/05/31 13:06:04;;;;;;;;;;;25.10;39.50;;;;;;5060219;28;19928;-72
2023/05/31 13:08:31;;;;;;;;;;;25.10;39.40;;;;;;5058415;28;19928;-72
2023/05/31 13:10:57;;;;;;;;;;;25.20;39.90;;;;;;5058095;28;19932;-73
2023/05/31 13:13:24;;;;;;;;;;;25.30;40.00;;;;;;5060766;28;19981;-73
2023/05/31 13:15:50;;;;;;;;;;;25.30;40.00;;;;;;5064826;28;20015;-74
2023/05/31 13:18:17;;;;;;;;;;;25.30;40.00;;;;;;5055740;28;22060;-72
2023/05/31 13:20:43;;;;;;;;;;;25.40;39.80;;;;;;5057592;28;20306;-73
2023/05/31 13:23:11;;;;;;;;;;;25.40;40.00;;;;;;5051623;28;20710;-73
2023/05/31 13:25:40;;;;;;;;;;;25.50;39.70;;;;;;5054430;28;19933;-73
2023/05/31 13:28:07;;;;;;;;;;;25.50;39.50;;;;;;5056324;28;19936;-72
2023/05/31 13:30:33;;;;;;;;;;;25.60;39.50;;;;;;5064428;28;19932;-73
2023/05/31 13:33:00;;;;;;;;;;;25.60;38.80;;;;;;5053402;28;19933;-73
2023/05/31 13:35:26;;;;;;;;;;;25.70;38.80;;;;;;5053218;28;20797;-74
2023/05/31 13:37:53;;;;;;;;;;;25.70;38.30;;;;;;5061002;28;19936;-73
2023/05/31 13:40:21;;;;;;;;;;;25.80;38.70;;;;;;5051836;28;19929;-73
2023/05/31 13:42:47;;;;;;;;;;;25.80;39.00;;;;;;5055324;28;19929;-73
2023/05/31 13:45:14;;;;;;;;;;;26.00;37.50;;;;;;5058367;28;19928;-73
2023/05/31 13:47:41;;;;;;;;;;;26.10;36.60;;;;;;5064396;28;19977;-74
2023/05/31 13:50:08;;;;;;;;;;;26.20;36.80;;;;;;5062406;28;19924;-74
2023/05/31 13:52:34;;;;;;;;;;;26.20;36.80;;;;;;5065199;28;19924;-73
2023/05/31 13:55:01;;;;;;;;;;;26.20;36.90;;;;;;5067465;28;19925;-74
2023/05/31 13:57:29;;;;;;;;;;;26.20;36.90;;;;;;5070767;28;20565;-73
2023/05/31 13:59:57;;;;;;;;;;;26.20;37.00;;;;;;5062864;28;19928;-75
2023/05/31 14:02:23;;;;;;;;;;;26.20;37.50;;;;;;5061173;28;19931;-74
2023/05/31 14:04:50;;;;;;;;;;;26.20;37.50;;;;;;5064149;28;19925;-73
2023/05/31 14:07:16;;;;;;;;;;;26.30;37.50;;;;;;5065899;28;19928;-74
2023/05/31 14:09:43;;;;;;;;;;;26.30;37.20;;;;;;5066241;28;20345;-75
2023/05/31 14:12:11;;;;;;;;;;;26.30;36.60;;;;;;5063333;28;20015;-74
2023/05/31 14:14:39;;;;;;;;;;;26.40;36.90;;;;;;5062603;28;20464;-75
2023/05/31 14:17:05;;;;;;;;;;;26.40;36.00;;;;;;5062052;28;19928;-72